Time;durP1;ratioP1;P1;durP2;ratioP2;P2;SDS_P1;SDS_P2;PMS_P1;PMS_P2;Temp;Humidity;BMP_temperature;BMP_pressure;BME280_temperature;BME280_humidity;BME280_pressure;Samples;Min_cycle;Max_cycle;Signal;HPM_P1;HPM_P2
2021/11/14 00:00:40;;;;;;;;;;;;;;;20.12;58.44;101570.28;5107068;28;1103;-38
2021/11/14 00:03:20;;;;;;;;;;;;;;;19.32;61.80;101571.13;5100558;28;2098;-38
2021/11/14 00:05:47;;;;;;;;;;;;;;;18.96;61.74;101583.69;5104750;28;2329;-38
2021/11/14 00:08:22;;;;;;;;;;;;;;;18.88;61.83;101570.91;5101333;28;1951;-38
2021/11/14 00:11:04;;;;;;;;;;;;;;;19.44;60.68;101581.78;5103279;28;1791;-37
2021/11/14 00:13:33;;;;;;;;;;;;;;;20.15;58.23;101584.31;5111496;28;1592;-38
2021/11/14 00:16:00;;;;;;;;;;;;;;;19.38;60.91;101562.66;5112835;28;1828;-37
2021/11/14 00:18:40;;;;;;;;;;;;;;;19.05;62.60;101581.19;5105047;28;1753;-38
2021/11/14 00:21:17;;;;;;;;;;;;;;;18.90;61.94;101577.00;5102443;28;1778;-38
2021/11/14 00:23:46;;;;;;;;;;;;;;;19.46;61.00;101579.00;5095875;28;1677;-38
2021/11/14 00:28:57;;;;;;;;;;;;;;;19.33;60.80;101562.13;5096320;28;2557;-38
2021/11/14 00:31:24;;;;;;;;;;;;;;;19.01;62.14;101560.94;5104481;28;1962;-38
2021/11/14 00:33:59;;;;;;;;;;;;;;;18.89;62.17;101553.84;5093653;28;1813;-38
2021/11/14 00:36:29;;;;;;;;;;;;;;;19.49;59.92;101565.34;5094711;28;1561;-38
2021/11/14 00:38:59;;;;;;;;;;;;;;;20.04;58.04;101560.16;5100175;28;1003;-38
2021/11/14 00:41:35;;;;;;;;;;;;;;;19.35;61.50;101550.31;5107876;28;1634;-38
2021/11/14 00:44:19;;;;;;;;;;;;;;;19.04;61.92;101558.03;5101652;28;1925;-38
2021/11/14 00:46:48;;;;;;;;;;;;;;;18.89;61.05;101551.16;5105037;28;1460;-38
2021/11/14 00:49:22;;;;;;;;;;;;;;;19.39;60.88;101558.97;5110178;28;1765;-38
2021/11/14 00:51:57;;;;;;;;;;;;;;;20.01;58.90;101565.78;5107449;28;2060;-38
2021/11/14 00:54:24;;;;;;;;;;;;;;;19.42;59.73;101564.13;5103638;28;1153;-38
2021/11/14 00:56:51;;;;;;;;;;;;;;;19.00;61.71;101559.25;5111449;28;1935;-37
2021/11/14 00:59:21;;;;;;;;;;;;;;;18.87;62.61;101561.97;5105228;28;1583;-38
2021/11/14 01:01:52;;;;;;;;;;;;;;;19.29;60.49;101556.16;5100419;28;1598;-37
2021/11/14 01:04:22;;;;;;;;;;;;;;;19.92;57.98;101559.31;5097665;28;1905;-38
2021/11/14 01:06:51;;;;;;;;;;;;;;;19.51;59.80;101549.13;5099457;28;1756;-38
2021/11/14 01:12:19;;;;;;;;;;;;;;;18.86;62.19;101562.97;5096599;28;2351;-38
2021/11/14 01:14:54;;;;;;;;;;;;;;;19.24;60.03;101574.44;5094629;28;1741;-38
2021/11/14 01:20:22;;;;;;;;;;;;;;;19.34;61.30;101575.44;5092527;28;2573;-36
2021/11/14 01:22:49;;;;;;;;;;;;;;;19.01;61.58;101562.78;5102460;28;1795;-36
2021/11/14 01:25:17;;;;;;;;;;;;;;;18.88;60.93;101562.84;5094214;28;1903;-36
2021/11/14 01:27:53;;;;;;;;;;;;;;;19.41;59.24;101557.88;5105882;28;2128;-36
2021/11/14 01:30:24;;;;;;;;;;;;;;;20.03;58.46;101567.38;5099463;28;1812;-38
2021/11/14 01:32:52;;;;;;;;;;;;;;;19.41;60.68;101573.13;5104684;28;1826;-38
2021/11/14 01:35:20;;;;;;;;;;;;;;;19.00;60.52;101566.41;5106034;28;1812;-38
2021/11/14 01:37:50;;;;;;;;;;;;;;;18.89;60.39;101561.88;5074756;28;1720;-38
2021/11/14 01:40:18;;;;;;;;;;;;;;;19.52;59.49;101557.06;5099811;28;1351;-38
2021/11/14 01:45:29;;;;;;;;;;;;;;;19.25;60.42;101563.56;5106427;28;2277;-38
2021/11/14 01:48:11;;;;;;;;;;;;;;;18.93;60.78;101563.34;5098262;28;1779;-38
2021/11/14 01:50:43;;;;;;;;;;;;;;;18.88;60.40;101571.75;5098364;28;1828;-38
2021/11/14 01:53:15;;;;;;;;;;;;;;;19.68;59.46;101575.50;5109304;28;1803;-38
2021/11/14 01:55:45;;;;;;;;;;;;;;;19.87;58.64;101572.22;5106278;28;1603;-38
2021/11/14 01:58:16;;;;;;;;;;;;;;;19.22;60.25;101569.19;5106125;28;1598;-38
2021/11/14 02:03:45;;;;;;;;;;;;;;;18.86;61.21;101562.09;5100863;28;2350;-38
2021/11/14 02:06:17;;;;;;;;;;;;;;;19.79;59.23;101561.25;5100745;28;1909;-38
2021/11/14 02:08:50;;;;;;;;;;;;;;;19.85;57.83;101564.28;5103203;28;1015;-38
2021/11/14 02:11:20;;;;;;;;;;;;;;;19.20;60.72;101572.94;5107779;28;1745;-38
2021/11/14 02:13:48;;;;;;;;;;;;;;;18.90;60.87;101563.59;5112041;28;1022;-38
2021/11/14 02:16:36;;;;;;;;;;;;;;;19.18;60.57;101574.88;5108186;28;2242;-38
2021/11/14 02:19:03;;;;;;;;;;;;;;;20.09;57.56;101563.31;5109082;28;1722;-38
2021/11/14 02:21:55;;;;;;;;;;;;;;;19.52;59.68;101578.53;5103035;28;1618;-37
2021/11/14 02:24:36;;;;;;;;;;;;;;;19.05;60.34;101577.66;5093001;28;1726;-38
2021/11/14 02:29:44;;;;;;;;;;;;;;;19.47;59.52;101581.53;5104092;28;2268;-37
2021/11/14 02:32:12;;;;;;;;;;;;;;;20.02;57.66;101570.19;5100263;28;1817;-38
2021/11/14 02:34:40;;;;;;;;;;;;;;;19.41;59.54;101582.03;5104334;28;1579;-38
2021/11/14 02:37:14;;;;;;;;;;;;;;;19.02;60.96;101564.47;5099535;28;1640;-38
2021/11/14 02:39:55;;;;;;;;;;;;;;;18.90;60.27;101568.06;5104802;28;1051;-38
2021/11/14 02:42:30;;;;;;;;;;;;;;;19.61;59.23;101560.84;5104726;28;1591;-38
2021/11/14 02:44:59;;;;;;;;;;;;;;;20.01;57.45;101553.19;5092217;28;1977;-38
2021/11/14 02:47:34;;;;;;;;;;;;;;;19.31;59.68;101564.09;5103793;28;1558;-38
2021/11/14 02:50:03;;;;;;;;;;;;;;;18.93;60.24;101555.31;5099003;28;1839;-38
2021/11/14 02:52:33;;;;;;;;;;;;;;;18.85;61.05;101565.75;5101265;28;1480;-38
2021/11/14 02:55:18;;;;;;;;;;;;;;;19.58;58.12;101551.22;5106797;28;1162;-38
2021/11/14 02:57:49;;;;;;;;;;;;;;;20.12;57.82;101564.94;5106100;28;1969;-38
2021/11/14 03:05:36;;;;;;;;;;;;;;;18.88;60.55;101552.97;5077286;28;2262;-37
2021/11/14 03:08:09;;;;;;;;;;;;;;;19.63;58.46;101565.09;5084857;28;1560;-37
2021/11/14 03:10:37;;;;;;;;;;;;;;;19.42;59.24;101551.56;5074035;28;1664;-37
2021/11/14 03:13:07;;;;;;;;;;;;;;;19.05;60.59;101559.72;5083070;28;1185;-37
2021/11/14 03:15:39;;;;;;;;;;;;;;;18.80;61.08;101552.72;5088875;28;1507;-38
2021/11/14 03:18:10;;;;;;;;;;;;;;;18.88;60.57;101549.47;5080974;28;1524;-37
2021/11/14 03:20:46;;;;;;;;;;;;;;;19.37;59.70;101561.78;5077859;28;1530;-37
2021/11/14 03:23:27;;;;;;;;;;;;;;;19.23;61.17;101556.63;5077991;28;1682;-37
2021/11/14 03:25:58;;;;;;;;;;;;;;;18.93;61.85;101560.66;5078844;28;1914;-37
2021/11/14 03:31:16;;;;;;;;;;;;;;;19.18;61.01;101558.78;5077130;28;1800;-37
2021/11/14 03:33:48;;;;;;;;;;;;;;;19.52;59.71;101553.50;5089998;28;1775;-37
2021/11/14 03:41:47;;;;;;;;;;;;;;;18.90;61.33;101554.69;5087371;28;1910;-37
2021/11/14 03:44:13;;;;;;;;;;;;;;;19.28;61.47;101555.31;5084285;28;1448;-37
2021/11/14 03:46:47;;;;;;;;;;;;;;;19.16;61.62;101550.88;5089951;28;1992;-37
2021/11/14 03:49:16;;;;;;;;;;;;;;;18.84;62.28;101550.63;5084258;28;1472;-37
2021/11/14 03:51:53;;;;;;;;;;;;;;;18.68;63.03;101542.84;5082471;28;1515;-38
2021/11/14 03:54:29;;;;;;;;;;;;;;;19.16;60.99;101576.81;5074375;28;1564;-37
2021/11/14 03:59:39;;;;;;;;;;;;;;;18.98;61.65;101569.22;5081825;28;2327;-37
2021/11/14 04:02:12;;;;;;;;;;;;;;;18.74;62.42;101550.47;5082683;28;1665;-37
2021/11/14 04:04:47;;;;;;;;;;;;;;;18.91;61.84;101551.88;5082549;28;1552;-38
2021/11/14 04:07:13;;;;;;;;;;;;;;;19.39;61.43;101559.81;5081248;28;1902;-38
2021/11/14 04:09:42;;;;;;;;;;;;;;;19.14;61.54;101562.69;5074573;28;1484;-38
2021/11/14 04:15:02;;;;;;;;;;;;;;;18.67;63.20;101567.94;5088640;28;2534;-37
2021/11/14 04:17:29;;;;;;;;;;;;;;;19.17;61.07;101573.19;5073645;28;1772;-37
2021/11/14 04:19:56;;;;;;;;;;;;;;;19.40;60.75;101563.38;5068965;28;1484;-38
2021/11/14 04:22:30;;;;;;;;;;;;;;;18.97;62.34;101567.50;5078741;28;1107;-37
2021/11/14 04:25:01;;;;;;;;;;;;;;;18.84;63.25;101559.53;5061807;28;1380;-37
2021/11/14 04:27:46;;;;;;;;;;;;;;;18.87;62.81;101558.44;5084008;28;1965;-37
2021/11/14 04:30:14;;;;;;;;;;;;;;;19.46;61.70;101558.38;5077878;28;2550;-37
2021/11/14 04:32:41;;;;;;;;;;;;;;;19.56;61.52;101565.72;5075678;28;1950;-38
2021/11/14 04:35:08;;;;;;;;;;;;;;;19.30;61.59;101573.09;5082663;28;1604;-38
2021/11/14 04:37:35;;;;;;;;;;;;;;;19.02;62.64;101565.34;5078254;28;1659;-38
2021/11/14 04:40:02;;;;;;;;;;;;;;;18.93;61.93;101565.19;5069448;28;1073;-37
2021/11/14 04:42:28;;;;;;;;;;;;;;;19.42;61.70;101581.06;5073518;28;1840;-37
2021/11/14 04:44:56;;;;;;;;;;;;;;;19.59;61.29;101573.53;5076945;28;2053;-38
2021/11/14 04:47:23;;;;;;;;;;;;;;;19.36;61.99;101583.34;5079014;28;1917;-38
2021/11/14 04:49:49;;;;;;;;;;;;;;;19.13;62.12;101582.44;5081681;28;1756;-37
2021/11/14 04:52:16;;;;;;;;;;;;;;;18.97;62.53;101572.00;5080418;28;1736;-38
2021/11/14 04:54:42;;;;;;;;;;;;;;;19.23;62.33;101586.97;5089429;28;1061;-37
2021/11/14 04:57:09;;;;;;;;;;;;;;;19.66;61.30;101578.28;5083992;28;1817;-38
2021/11/14 04:59:35;;;;;;;;;;;;;;;19.48;61.52;101577.06;5076983;28;1877;-37
2021/11/14 05:02:03;;;;;;;;;;;;;;;19.20;62.00;101576.50;5078632;28;1502;-38
2021/11/14 05:04:30;;;;;;;;;;;;;;;18.99;62.39;101570.91;5078635;28;1518;-38
2021/11/14 05:06:56;;;;;;;;;;;;;;;19.10;62.76;101579.97;5076994;28;1983;-37
2021/11/14 05:09:23;;;;;;;;;;;;;;;19.57;61.64;101591.56;5080511;28;1010;-38
2021/11/14 05:11:49;;;;;;;;;;;;;;;19.32;62.10;101585.44;5082177;28;1809;-37
2021/11/14 05:14:15;;;;;;;;;;;;;;;19.07;62.65;101587.28;5084390;28;1080;-38
2021/11/14 05:16:42;;;;;;;;;;;;;;;18.87;62.75;101586.09;5076807;28;1725;-38
2021/11/14 05:19:10;;;;;;;;;;;;;;;19.03;62.95;101591.16;5085362;28;1830;-38
2021/11/14 05:21:38;;;;;;;;;;;;;;;19.42;62.09;101589.09;5086237;28;1603;-38
2021/11/14 05:24:05;;;;;;;;;;;;;;;19.33;62.40;101597.00;5080529;28;1586;-38
2021/11/14 05:26:31;;;;;;;;;;;;;;;19.12;62.39;101602.16;5083044;28;2009;-37
2021/11/14 05:28:58;;;;;;;;;;;;;;;18.91;63.69;101600.13;5082336;28;1609;-38
2021/11/14 05:31:24;;;;;;;;;;;;;;;18.99;63.34;101599.56;5078150;28;1733;-37
2021/11/14 05:33:51;;;;;;;;;;;;;;;19.42;61.41;101605.19;5071787;28;1787;-38
2021/11/14 05:36:19;;;;;;;;;;;;;;;19.35;62.12;101609.31;5078388;28;1520;-38
2021/11/14 05:38:45;;;;;;;;;;;;;;;19.09;62.56;101611.28;5078710;28;1011;-37
2021/11/14 05:41:11;;;;;;;;;;;;;;;18.90;63.45;101622.56;5085282;28;1838;-38
2021/11/14 05:43:38;;;;;;;;;;;;;;;19.00;63.38;101615.53;5076641;28;1621;-37
2021/11/14 05:46:04;;;;;;;;;;;;;;;19.46;62.39;101621.91;5080013;28;2302;-37
2021/11/14 05:48:31;;;;;;;;;;;;;;;19.39;61.73;101626.03;5080907;28;1483;-37
2021/11/14 05:50:58;;;;;;;;;;;;;;;19.12;63.00;101618.25;5074787;28;1485;-38
2021/11/14 05:53:27;;;;;;;;;;;;;;;18.91;63.38;101626.94;5076697;28;1065;-38
2021/11/14 05:55:54;;;;;;;;;;;;;;;19.01;63.58;101619.91;5086682;28;1803;-38
2021/11/14 05:58:24;;;;;;;;;;;;;;;19.50;61.10;101630.56;5078061;28;1701;-38
2021/11/14 06:00:55;;;;;;;;;;;;;;;19.32;62.08;101631.03;5076911;28;1727;-38
2021/11/14 06:03:30;;;;;;;;;;;;;;;19.03;63.27;101642.09;5079466;28;1467;-38
2021/11/14 06:05:56;;;;;;;;;;;;;;;18.86;63.66;101621.91;5081755;28;1977;-37
2021/11/14 06:08:23;;;;;;;;;;;;;;;19.04;62.25;101627.75;5083763;28;1846;-38
2021/11/14 06:10:51;;;;;;;;;;;;;;;19.51;61.13;101621.56;5081125;28;1503;-38
2021/11/14 06:13:19;;;;;;;;;;;;;;;19.31;62.68;101653.44;5068647;28;1074;-37
2021/11/14 06:15:46;;;;;;;;;;;;;;;19.09;62.62;101643.47;5075392;28;1808;-38
2021/11/14 06:18:12;;;;;;;;;;;;;;;18.88;62.88;101644.09;5080490;28;1759;-38
2021/11/14 06:20:39;;;;;;;;;;;;;;;19.06;62.40;101652.59;5077430;28;1752;-37
2021/11/14 06:23:06;;;;;;;;;;;;;;;19.46;62.02;101643.38;5071342;28;1609;-37
2021/11/14 06:25:32;;;;;;;;;;;;;;;19.32;61.74;101635.50;5077826;28;1583;-38
2021/11/14 06:28:00;;;;;;;;;;;;;;;19.07;62.44;101648.94;5077134;28;1905;-38
2021/11/14 06:30:27;;;;;;;;;;;;;;;18.88;63.97;101643.25;5076244;28;1466;-38
2021/11/14 06:32:54;;;;;;;;;;;;;;;18.98;62.89;101638.91;5075691;28;1828;-37
2021/11/14 06:35:20;;;;;;;;;;;;;;;19.39;62.43;101658.22;5076724;28;1624;-38
2021/11/14 06:37:47;;;;;;;;;;;;;;;19.32;62.68;101667.69;5077571;28;1626;-37
2021/11/14 06:40:13;;;;;;;;;;;;;;;19.05;62.41;101650.03;5086199;28;1594;-37
2021/11/14 06:42:40;;;;;;;;;;;;;;;18.92;63.82;101659.94;5075067;28;1812;-38
2021/11/14 06:45:08;;;;;;;;;;;;;;;19.00;62.53;101663.78;5075675;28;1942;-37
2021/11/14 06:47:35;;;;;;;;;;;;;;;19.45;62.32;101653.22;5074272;28;1909;-37
2021/11/14 06:50:01;;;;;;;;;;;;;;;19.34;62.86;101665.75;5081768;28;1464;-38
2021/11/14 06:52:28;;;;;;;;;;;;;;;19.03;63.03;101674.25;5083390;28;1564;-38
2021/11/14 06:54:54;;;;;;;;;;;;;;;18.90;63.42;101677.97;5085920;28;1257;-38
2021/11/14 06:57:21;;;;;;;;;;;;;;;18.99;62.52;101678.13;5085823;28;1810;-38
2021/11/14 06:59:48;;;;;;;;;;;;;;;19.36;62.17;101671.84;5088190;28;1769;-38
2021/11/14 07:02:16;;;;;;;;;;;;;;;19.26;62.92;101675.25;5078872;28;1572;-38
2021/11/14 07:04:42;;;;;;;;;;;;;;;18.99;62.53;101670.09;5082480;28;2565;-37
2021/11/14 07:07:09;;;;;;;;;;;;;;;18.86;63.06;101669.28;5077852;28;1918;-37
2021/11/14 07:09:35;;;;;;;;;;;;;;;18.97;62.68;101674.72;5080551;28;1549;-37
2021/11/14 07:12:02;;;;;;;;;;;;;;;19.38;62.09;101660.06;5076932;28;2030;-37
2021/11/14 07:14:29;;;;;;;;;;;;;;;19.25;61.89;101661.94;5088453;28;1432;-38
2021/11/14 07:16:56;;;;;;;;;;;;;;;19.02;63.54;101667.19;5077018;28;1619;-37
2021/11/14 07:19:24;;;;;;;;;;;;;;;18.86;63.62;101661.25;5081283;28;1902;-38
2021/11/14 07:21:50;;;;;;;;;;;;;;;18.96;63.00;101662.31;5079193;28;1622;-38
2021/11/14 07:24:17;;;;;;;;;;;;;;;19.44;62.04;101672.16;5080823;28;2249;-38
2021/11/14 07:26:44;;;;;;;;;;;;;;;19.32;62.11;101663.19;5083781;28;1902;-37
2021/11/14 07:29:10;;;;;;;;;;;;;;;19.01;63.52;101686.06;5076844;28;1641;-37
2021/11/14 07:31:37;;;;;;;;;;;;;;;18.84;63.64;101657.81;5078236;28;1640;-37
2021/11/14 07:34:03;;;;;;;;;;;;;;;18.95;63.42;101671.28;5085995;28;1591;-38
2021/11/14 07:36:31;;;;;;;;;;;;;;;19.43;61.51;101648.97;5087702;28;1508;-38
2021/11/14 07:38:57;;;;;;;;;;;;;;;19.24;63.17;101670.97;5071560;28;1247;-38
2021/11/14 07:41:24;;;;;;;;;;;;;;;19.01;62.74;101670.00;5079834;28;1412;-38
2021/11/14 07:43:50;;;;;;;;;;;;;;;18.86;63.44;101666.59;5079074;28;1750;-38
2021/11/14 07:46:17;;;;;;;;;;;;;;;18.93;63.03;101657.16;5078412;28;1909;-37
2021/11/14 07:48:44;;;;;;;;;;;;;;;19.33;61.34;101672.94;5082280;28;1473;-38
2021/11/14 07:51:11;;;;;;;;;;;;;;;19.13;61.92;101653.00;5087377;28;1536;-38
2021/11/14 07:53:39;;;;;;;;;;;;;;;18.91;63.68;101664.44;5087653;28;1489;-37
2021/11/14 07:56:05;;;;;;;;;;;;;;;18.83;63.17;101669.53;5088242;28;1946;-38
2021/11/14 07:58:34;;;;;;;;;;;;;;;19.02;62.58;101666.31;5087123;28;1517;-38
2021/11/14 08:01:08;;;;;;;;;;;;;;;19.55;61.63;101671.31;5084957;28;1746;-37
2021/11/14 08:03:42;;;;;;;;;;;;;;;19.36;61.48;101669.16;5090091;28;1460;-37
2021/11/14 08:06:18;;;;;;;;;;;;;;;19.04;62.87;101670.63;5088928;28;1512;-38
2021/11/14 08:08:46;;;;;;;;;;;;;;;18.83;63.44;101688.28;5090431;28;1385;-37
2021/11/14 08:11:14;;;;;;;;;;;;;;;19.04;63.03;101680.50;5086504;28;1579;-37
2021/11/14 08:13:43;;;;;;;;;;;;;;;19.48;61.55;101676.31;5082797;28;1925;-37
2021/11/14 08:16:17;;;;;;;;;;;;;;;19.12;62.69;101685.28;5086543;28;1543;-37
2021/11/14 08:18:47;;;;;;;;;;;;;;;18.80;62.92;101691.16;5085394;28;1672;-37
2021/11/14 08:21:13;;;;;;;;;;;;;;;18.77;62.63;101696.75;5091319;28;1758;-37
2021/11/14 08:23:40;;;;;;;;;;;;;;;19.02;61.99;101690.44;5086666;28;1681;-37
2021/11/14 08:26:10;;;;;;;;;;;;;;;19.31;61.11;101677.56;5084221;28;1966;-37
2021/11/14 08:28:37;;;;;;;;;;;;;;;18.94;61.48;101688.38;5083126;28;1906;-37
2021/11/14 08:31:05;;;;;;;;;;;;;;;18.77;62.20;101694.91;5085714;28;1792;-37
2021/11/14 08:33:33;;;;;;;;;;;;;;;18.63;63.13;101698.59;5084411;28;1547;-37
2021/11/14 08:36:02;;;;;;;;;;;;;;;19.00;62.59;101682.56;5090175;28;1750;-37
2021/11/14 08:38:31;;;;;;;;;;;;;;;19.27;60.95;101676.94;5081646;28;1062;-37
2021/11/14 08:40:58;;;;;;;;;;;;;;;18.93;62.51;101681.28;5091555;28;1756;-37
2021/11/14 08:43:29;;;;;;;;;;;;;;;18.72;62.71;101696.19;5084988;28;1653;-37
2021/11/14 08:46:02;;;;;;;;;;;;;;;18.62;62.78;101687.97;5086984;28;1740;-37
2021/11/14 08:48:32;;;;;;;;;;;;;;;19.06;61.28;101689.28;5084454;28;1977;-37
2021/11/14 08:50:59;;;;;;;;;;;;;;;19.11;61.18;101694.28;5090271;28;1247;-37
2021/11/14 08:53:34;;;;;;;;;;;;;;;18.86;62.13;101696.97;5090006;28;1532;-37
2021/11/14 08:56:06;;;;;;;;;;;;;;;18.77;61.99;101707.47;5091212;28;1557;-37
2021/11/14 08:58:36;;;;;;;;;;;;;;;18.86;62.06;101698.75;5091203;28;1579;-37
2021/11/14 09:01:05;;;;;;;;;;;;;;;19.27;60.87;101697.53;5090341;28;1448;-37
2021/11/14 09:03:31;;;;;;;;;;;;;;;19.05;61.62;101696.44;5088809;28;1530;-37
2021/11/14 09:06:07;;;;;;;;;;;;;;;18.79;62.36;101700.16;5088363;28;1404;-37
2021/11/14 09:08:33;;;;;;;;;;;;;;;18.59;62.65;101697.09;5088183;28;2130;-37
2021/11/14 09:10:59;;;;;;;;;;;;;;;18.92;61.78;101703.69;5085295;28;1537;-37
2021/11/14 09:13:27;;;;;;;;;;;;;;;19.43;60.90;101707.97;5082358;28;1548;-37
2021/11/14 09:15:58;;;;;;;;;;;;;;;19.03;61.98;101693.03;5075850;28;1591;-37
2021/11/14 09:18:25;;;;;;;;;;;;;;;18.85;61.76;101689.03;5076746;28;1590;-37
2021/11/14 09:20:52;;;;;;;;;;;;;;;18.71;63.03;101686.47;5076987;28;1593;-37
2021/11/14 09:23:18;;;;;;;;;;;;;;;19.04;61.04;101678.66;5073534;28;1657;-37
2021/11/14 09:25:45;;;;;;;;;;;;;;;19.42;60.24;101668.72;5073289;28;1682;-37
2021/11/14 09:28:13;;;;;;;;;;;;;;;19.02;62.42;101663.66;5087099;28;1906;-38
2021/11/14 09:30:42;;;;;;;;;;;;;;;18.79;62.93;101686.75;5082886;28;1527;-38
2021/11/14 09:33:10;;;;;;;;;;;;;;;18.78;62.65;101672.53;5082415;28;1471;-37
2021/11/14 09:35:37;;;;;;;;;;;;;;;19.23;60.93;101674.59;5082315;28;1806;-37
2021/11/14 09:38:03;;;;;;;;;;;;;;;19.28;61.05;101670.63;5077237;28;1653;-37
2021/11/14 09:40:30;;;;;;;;;;;;;;;18.98;62.31;101671.09;5088457;28;1563;-37
2021/11/14 09:43:06;;;;;;;;;;;;;;;18.80;62.11;101669.72;5082825;28;1430;-37
2021/11/14 09:45:36;;;;;;;;;;;;;;;18.95;62.43;101660.56;5084311;28;1629;-37
2021/11/14 09:48:06;;;;;;;;;;;;;;;19.28;61.81;101667.09;5087460;28;1905;-37
2021/11/14 09:50:42;;;;;;;;;;;;;;;19.11;62.36;101654.09;5087164;28;1768;-38
2021/11/14 09:53:08;;;;;;;;;;;;;;;18.85;62.93;101646.16;5088065;28;1780;-37
2021/11/14 09:55:37;;;;;;;;;;;;;;;18.73;63.10;101649.69;5090335;28;2255;-37
2021/11/14 09:58:08;;;;;;;;;;;;;;;18.99;62.27;101661.22;5090092;28;1590;-37
2021/11/14 10:00:39;;;;;;;;;;;;;;;19.47;61.27;101645.91;5077768;28;999;-37
2021/11/14 10:03:07;;;;;;;;;;;;;;;19.11;62.02;101651.41;5083654;28;1689;-38
2021/11/14 10:05:39;;;;;;;;;;;;;;;18.79;63.33;101643.88;5085953;28;2001;-37
2021/11/14 10:08:12;;;;;;;;;;;;;;;18.60;63.37;101650.59;5083463;28;1975;-37
2021/11/14 10:10:39;;;;;;;;;;;;;;;19.12;62.69;101637.88;5088057;28;1536;-37
2021/11/14 10:13:16;;;;;;;;;;;;;;;19.38;62.37;101646.66;5082676;28;1127;-37
2021/11/14 10:15:44;;;;;;;;;;;;;;;19.08;61.66;101634.56;5088053;28;1552;-37
2021/11/14 10:18:13;;;;;;;;;;;;;;;18.91;62.42;101647.53;5082991;28;1555;-37
2021/11/14 10:20:43;;;;;;;;;;;;;;;18.90;62.69;101625.25;5084435;28;1507;-37
2021/11/14 10:23:10;;;;;;;;;;;;;;;19.46;62.28;101632.66;5083529;28;1520;-37
2021/11/14 10:25:44;;;;;;;;;;;;;;;19.41;61.44;101629.44;5093416;28;1731;-38
2021/11/14 10:28:29;;;;;;;;;;;;;;;19.20;62.00;101613.16;5090506;28;2300;-37
2021/11/14 10:30:59;;;;;;;;;;;;;;;18.99;62.65;101635.25;5089781;28;1672;-37
2021/11/14 10:33:27;;;;;;;;;;;;;;;18.97;64.57;101618.44;5090436;28;1609;-37
2021/11/14 10:36:01;;;;;;;;;;;;;;;19.55;62.74;101626.56;5084304;28;1559;-37
2021/11/14 10:38:30;;;;;;;;;;;;;;;19.23;63.37;101604.88;5089921;28;1579;-37
2021/11/14 10:41:02;;;;;;;;;;;;;;;18.95;63.84;101601.59;5082544;28;1782;-37
2021/11/14 10:43:29;;;;;;;;;;;;;;;18.85;64.88;101624.72;5080043;28;1444;-38
2021/11/14 10:45:58;;;;;;;;;;;;;;;18.79;64.73;101619.78;5084769;28;1630;-37
2021/11/14 10:51:11;;;;;;;;;;;;;;;19.65;62.15;101599.88;5092297;28;2387;-38
2021/11/14 10:53:38;;;;;;;;;;;;;;;19.38;62.62;101611.78;5082105;28;1366;-37
2021/11/14 10:56:11;;;;;;;;;;;;;;;19.12;63.72;101599.47;5091553;28;1499;-38
2021/11/14 10:58:46;;;;;;;;;;;;;;;19.08;63.89;101606.91;5083082;28;1643;-37
2021/11/14 11:03:57;;;;;;;;;;;;;;;19.55;61.86;101613.16;5081497;28;2265;-37
2021/11/14 11:06:32;;;;;;;;;;;;;;;19.18;63.59;101612.41;5088222;28;1784;-38
2021/11/14 11:09:01;;;;;;;;;;;;;;;18.93;63.87;101613.44;5088178;28;1909;-37
2021/11/14 11:11:30;;;;;;;;;;;;;;;18.80;63.98;101603.63;5090604;28;1539;-37
2021/11/14 11:13:59;;;;;;;;;;;;;;;19.20;62.70;101606.00;5087047;28;1141;-37
2021/11/14 11:16:29;;;;;;;;;;;;;;;19.44;63.06;101610.44;5086412;28;1960;-37
2021/11/14 11:19:00;;;;;;;;;;;;;;;19.08;63.60;101599.72;5085520;28;1742;-37
2021/11/14 11:21:35;;;;;;;;;;;;;;;18.83;63.75;101597.16;5089027;28;1526;-37
2021/11/14 11:24:07;;;;;;;;;;;;;;;18.80;63.78;101613.47;5078514;28;1621;-37
2021/11/14 11:26:34;;;;;;;;;;;;;;;19.24;62.73;101603.94;5078586;28;1532;-37
2021/11/14 11:29:02;;;;;;;;;;;;;;;19.35;62.64;101603.09;5084068;28;1988;-37
2021/11/14 11:31:29;;;;;;;;;;;;;;;19.00;63.86;101583.38;5077501;28;1672;-37
2021/11/14 11:33:55;;;;;;;;;;;;;;;18.90;63.95;101589.53;5084492;28;1555;-37
2021/11/14 11:39:06;;;;;;;;;;;;;;;19.43;62.97;101585.44;5092870;28;2542;-37
2021/11/14 11:41:34;;;;;;;;;;;;;;;19.41;61.99;101586.53;5081953;28;1535;-37
2021/11/14 11:44:02;;;;;;;;;;;;;;;19.13;63.29;101590.47;5089459;28;1650;-36
2021/11/14 11:46:30;;;;;;;;;;;;;;;19.05;63.73;101597.25;5080123;28;1574;-36
2021/11/14 11:48:58;;;;;;;;;;;;;;;18.90;64.25;101586.84;5082538;28;2224;-37
2021/11/14 11:51:29;;;;;;;;;;;;;;;19.27;63.29;101587.59;5079036;28;1519;-37
2021/11/14 11:53:56;;;;;;;;;;;;;;;19.58;61.38;101598.66;5089115;28;1545;-36
2021/11/14 11:56:34;;;;;;;;;;;;;;;19.21;63.62;101593.44;5084427;28;1657;-36
2021/11/14 11:59:00;;;;;;;;;;;;;;;19.00;64.00;101591.41;5087403;28;1614;-36
2021/11/14 12:01:29;;;;;;;;;;;;;;;18.87;64.48;101599.50;5087659;28;1948;-37
2021/11/14 12:03:56;;;;;;;;;;;;;;;19.32;62.99;101601.53;5085428;28;1584;-37
2021/11/14 12:06:24;;;;;;;;;;;;;;;19.48;62.55;101607.41;5085524;28;1512;-37
2021/11/14 12:08:52;;;;;;;;;;;;;;;19.07;64.19;101592.63;5086850;28;1973;-36
2021/11/14 12:11:28;;;;;;;;;;;;;;;18.98;65.09;101595.16;5085451;28;1655;-37
2021/11/14 12:13:55;;;;;;;;;;;;;;;18.92;64.28;101607.22;5087901;28;1596;-37
2021/11/14 12:16:25;;;;;;;;;;;;;;;19.36;63.79;101588.69;5085836;28;2235;-37
2021/11/14 12:18:52;;;;;;;;;;;;;;;19.34;63.45;101593.34;5084340;28;1707;-37
2021/11/14 12:21:20;;;;;;;;;;;;;;;18.97;64.32;101583.59;5080916;28;1693;-37
2021/11/14 12:23:51;;;;;;;;;;;;;;;18.77;65.67;101595.75;5080980;28;2035;-37
2021/11/14 12:26:24;;;;;;;;;;;;;;;18.87;64.73;101604.00;5075754;28;1552;-36
2021/11/14 12:28:54;;;;;;;;;;;;;;;19.24;64.36;101591.38;5074583;28;2564;-36
2021/11/14 12:31:24;;;;;;;;;;;;;;;19.14;64.00;101594.84;5077730;28;1607;-37
2021/11/14 12:33:53;;;;;;;;;;;;;;;18.86;65.40;101587.09;5079857;28;1570;-37
2021/11/14 12:36:21;;;;;;;;;;;;;;;18.73;65.60;101594.28;5088067;28;1693;-37
2021/11/14 12:38:48;;;;;;;;;;;;;;;18.91;65.18;101586.72;5087379;28;1392;-37
2021/11/14 12:41:16;;;;;;;;;;;;;;;19.36;64.11;101597.63;5086269;28;1669;-36
2021/11/14 12:43:45;;;;;;;;;;;;;;;19.12;63.59;101594.13;5074400;28;1594;-37
2021/11/14 12:46:15;;;;;;;;;;;;;;;18.86;64.78;101595.13;5086104;28;1594;-37
2021/11/14 12:48:46;;;;;;;;;;;;;;;18.69;65.37;101599.00;5088707;28;1914;-37
2021/11/14 12:51:13;;;;;;;;;;;;;;;18.93;65.40;101592.81;5088694;28;1508;-37
2021/11/14 12:53:51;;;;;;;;;;;;;;;19.41;62.81;101594.59;5084236;28;1342;-37
2021/11/14 12:56:19;;;;;;;;;;;;;;;19.10;64.07;101577.28;5086656;28;1624;-36
2021/11/14 12:58:45;;;;;;;;;;;;;;;18.84;64.90;101598.88;5085899;28;1639;-36
2021/11/14 13:01:14;;;;;;;;;;;;;;;18.66;65.78;101604.59;5080643;28;1485;-37
2021/11/14 13:03:42;;;;;;;;;;;;;;;18.96;63.96;101589.94;5086709;28;1504;-36
2021/11/14 13:06:16;;;;;;;;;;;;;;;19.36;63.55;101621.75;5088642;28;1476;-37
2021/11/14 13:08:43;;;;;;;;;;;;;;;19.06;64.58;101592.78;5087803;28;1973;-36
2021/11/14 13:11:19;;;;;;;;;;;;;;;18.82;64.64;101596.31;5086283;28;1647;-37
2021/11/14 13:13:45;;;;;;;;;;;;;;;18.74;64.98;101603.16;5080386;28;1363;-37
2021/11/14 13:16:14;;;;;;;;;;;;;;;19.17;64.22;101600.00;5077345;28;1610;-37
2021/11/14 13:18:41;;;;;;;;;;;;;;;19.65;62.11;101583.78;5078448;28;1583;-37
2021/11/14 13:21:09;;;;;;;;;;;;;;;19.36;63.54;101592.25;5081031;28;1527;-36
2021/11/14 13:23:54;;;;;;;;;;;;;;;19.08;64.30;101586.31;5085103;28;2264;-37
2021/11/14 13:26:29;;;;;;;;;;;;;;;18.82;65.10;101585.59;5081463;28;1594;-36
2021/11/14 13:28:57;;;;;;;;;;;;;;;18.84;65.12;101590.81;5074244;28;2163;-37
2021/11/14 13:31:25;;;;;;;;;;;;;;;19.50;62.41;101593.88;5078170;28;2847;-37
2021/11/14 13:33:58;;;;;;;;;;;;;;;19.35;63.68;101592.38;5079043;28;1676;-37
2021/11/14 13:36:25;;;;;;;;;;;;;;;19.00;64.59;101604.81;5074433;28;1702;-36
2021/11/14 13:38:51;;;;;;;;;;;;;;;18.86;64.16;101607.66;5080604;28;1448;-37
2021/11/14 13:41:18;;;;;;;;;;;;;;;18.99;64.09;101608.44;5087042;28;1547;-37
2021/11/14 13:43:52;;;;;;;;;;;;;;;19.44;62.86;101597.03;5085892;28;1389;-37